Terminal Aerodrome Forecast
Issued by NWS Greer, SC

Home | Current Version | Previous Version | Text Only | Print | Product List | Glossary On
Versions: 1 2 3 4 5 6 7 8 9 10 11 12 13 14
381
FTUS42 KGSP 101136
TAFGSP
TAF
KGSP 101136Z 1012/1112 26006KT P6SM SKC
     FM101600 27010G18KT P6SM FEW060
     FM102300 25006KT P6SM SKC=

USA.gov is the U.S. government's official web portal to all federal, state and local government web resources and services.